sensor_id;sensor_type;location;lat;lon;timestamp;P1;durP1;ratioP1;P2;durP2;ratioP2
7426;SDS011;3755;59.316;18.092;2022-12-15T00:06:51;2.27;;;1.83;;
7426;SDS011;3755;59.316;18.092;2022-12-15T00:09:36;3.50;;;1.93;;
7426;SDS011;3755;59.316;18.092;2022-12-15T00:12:23;3.60;;;2.73;;
7426;SDS011;3755;59.316;18.092;2022-12-15T00:15:08;1.47;;;1.30;;
7426;SDS011;3755;59.316;18.092;2022-12-15T00:17:57;3.63;;;2.03;;
7426;SDS011;3755;59.316;18.092;2022-12-15T00:27:17;3.93;;;2.10;;
7426;SDS011;3755;59.316;18.092;2022-12-15T00:30:03;3.50;;;1.80;;
7426;SDS011;3755;59.316;18.092;2022-12-15T00:32:55;2.80;;;1.93;;
7426;SDS011;3755;59.316;18.092;2022-12-15T00:36:07;1.97;;;1.47;;
7426;SDS011;3755;59.316;18.092;2022-12-15T00:38:52;2.10;;;1.53;;
7426;SDS011;3755;59.316;18.092;2022-12-15T00:41:34;2.37;;;1.87;;
7426;SDS011;3755;59.316;18.092;2022-12-15T01:07:03;3.40;;;1.90;;
7426;SDS011;3755;59.316;18.092;2022-12-15T01:09:48;3.10;;;2.23;;
7426;SDS011;3755;59.316;18.092;2022-12-15T01:12:37;1.60;;;1.27;;
7426;SDS011;3755;59.316;18.092;2022-12-15T01:15:24;1.27;;;1.17;;
7426;SDS011;3755;59.316;18.092;2022-12-15T01:18:15;1.67;;;1.20;;
7426;SDS011;3755;59.316;18.092;2022-12-15T01:24:25;1.93;;;1.73;;
7426;SDS011;3755;59.316;18.092;2022-12-15T01:27:06;3.53;;;1.57;;
7426;SDS011;3755;59.316;18.092;2022-12-15T01:32:41;3.43;;;1.90;;
7426;SDS011;3755;59.316;18.092;2022-12-15T01:35:24;2.13;;;1.60;;
7426;SDS011;3755;59.316;18.092;2022-12-15T01:44:20;3.37;;;1.93;;
7426;SDS011;3755;59.316;18.092;2022-12-15T01:47:03;3.30;;;1.97;;
7426;SDS011;3755;59.316;18.092;2022-12-15T01:49:50;2.43;;;1.97;;
7426;SDS011;3755;59.316;18.092;2022-12-15T01:52:39;2.97;;;1.97;;
7426;SDS011;3755;59.316;18.092;2022-12-15T01:55:21;5.07;;;2.00;;
7426;SDS011;3755;59.316;18.092;2022-12-15T02:01:13;2.67;;;1.70;;
7426;SDS011;3755;59.316;18.092;2022-12-15T02:03:57;3.77;;;2.03;;
7426;SDS011;3755;59.316;18.092;2022-12-15T02:06:39;3.47;;;2.30;;
7426;SDS011;3755;59.316;18.092;2022-12-15T02:09:26;3.00;;;2.00;;
7426;SDS011;3755;59.316;18.092;2022-12-15T02:12:23;2.83;;;2.07;;
7426;SDS011;3755;59.316;18.092;2022-12-15T02:15:15;2.37;;;2.00;;
7426;SDS011;3755;59.316;18.092;2022-12-15T02:27:50;4.23;;;2.37;;
7426;SDS011;3755;59.316;18.092;2022-12-15T02:33:39;3.77;;;2.07;;
7426;SDS011;3755;59.316;18.092;2022-12-15T02:36:32;4.50;;;2.30;;
7426;SDS011;3755;59.316;18.092;2022-12-15T02:39:20;3.53;;;2.00;;
7426;SDS011;3755;59.316;18.092;2022-12-15T02:42:07;3.03;;;1.87;;
7426;SDS011;3755;59.316;18.092;2022-12-15T02:44:41;3.27;;;2.00;;
7426;SDS011;3755;59.316;18.092;2022-12-15T02:53:41;3.93;;;2.00;;
7426;SDS011;3755;59.316;18.092;2022-12-15T02:56:24;3.20;;;2.07;;
7426;SDS011;3755;59.316;18.092;2022-12-15T02:59:36;3.30;;;2.50;;
7426;SDS011;3755;59.316;18.092;2022-12-15T03:02:22;3.60;;;2.33;;
7426;SDS011;3755;59.316;18.092;2022-12-15T03:05:08;5.13;;;1.97;;
7426;SDS011;3755;59.316;18.092;2022-12-15T03:07:56;4.60;;;2.00;;
7426;SDS011;3755;59.316;18.092;2022-12-15T03:10:24;4.63;;;2.20;;
7426;SDS011;3755;59.316;18.092;2022-12-15T03:13:08;2.37;;;2.17;;
7426;SDS011;3755;59.316;18.092;2022-12-15T03:15:57;3.20;;;2.40;;
7426;SDS011;3755;59.316;18.092;2022-12-15T03:18:40;3.67;;;2.57;;
7426;SDS011;3755;59.316;18.092;2022-12-15T03:21:24;4.50;;;2.50;;
7426;SDS011;3755;59.316;18.092;2022-12-15T03:26:49;4.13;;;2.57;;
7426;SDS011;3755;59.316;18.092;2022-12-15T03:29:30;3.47;;;2.23;;
7426;SDS011;3755;59.316;18.092;2022-12-15T03:32:12;3.77;;;2.20;;
7426;SDS011;3755;59.316;18.092;2022-12-15T03:34:42;3.13;;;2.17;;
7426;SDS011;3755;59.316;18.092;2022-12-15T03:37:11;5.00;;;2.37;;
7426;SDS011;3755;59.316;18.092;2022-12-15T03:45:53;3.67;;;2.20;;
7426;SDS011;3755;59.316;18.092;2022-12-15T03:48:36;4.93;;;2.50;;
7426;SDS011;3755;59.316;18.092;2022-12-15T03:51:09;2.93;;;2.17;;
7426;SDS011;3755;59.316;18.092;2022-12-15T03:53:39;5.87;;;2.63;;
7426;SDS011;3755;59.316;18.092;2022-12-15T03:56:07;3.60;;;2.37;;
7426;SDS011;3755;59.316;18.092;2022-12-15T03:58:57;5.77;;;3.00;;
7426;SDS011;3755;59.316;18.092;2022-12-15T04:01:45;4.50;;;2.50;;
7426;SDS011;3755;59.316;18.092;2022-12-15T04:04:15;3.93;;;2.57;;
7426;SDS011;3755;59.316;18.092;2022-12-15T04:06:57;6.40;;;2.50;;
7426;SDS011;3755;59.316;18.092;2022-12-15T04:09:38;2.90;;;2.27;;
7426;SDS011;3755;59.316;18.092;2022-12-15T04:12:19;4.77;;;2.50;;
7426;SDS011;3755;59.316;18.092;2022-12-15T04:15:11;4.10;;;2.10;;
7426;SDS011;3755;59.316;18.092;2022-12-15T04:17:48;3.93;;;2.10;;
7426;SDS011;3755;59.316;18.092;2022-12-15T04:20:31;3.20;;;2.33;;
7426;SDS011;3755;59.316;18.092;2022-12-15T04:23:15;3.83;;;2.33;;
7426;SDS011;3755;59.316;18.092;2022-12-15T04:26:18;3.33;;;2.20;;
7426;SDS011;3755;59.316;18.092;2022-12-15T04:29:03;2.83;;;2.50;;
7426;SDS011;3755;59.316;18.092;2022-12-15T04:31:53;2.70;;;2.07;;
7426;SDS011;3755;59.316;18.092;2022-12-15T04:34:38;2.63;;;1.77;;
7426;SDS011;3755;59.316;18.092;2022-12-15T04:37:22;3.27;;;1.93;;
7426;SDS011;3755;59.316;18.092;2022-12-15T04:40:09;4.03;;;1.67;;
7426;SDS011;3755;59.316;18.092;2022-12-15T04:42:54;3.13;;;2.13;;
7426;SDS011;3755;59.316;18.092;2022-12-15T04:45:38;3.30;;;2.20;;
7426;SDS011;3755;59.316;18.092;2022-12-15T04:51:32;3.87;;;1.90;;
7426;SDS011;3755;59.316;18.092;2022-12-15T04:54:18;2.97;;;2.10;;
7426;SDS011;3755;59.316;18.092;2022-12-15T04:57:04;3.13;;;2.00;;
7426;SDS011;3755;59.316;18.092;2022-12-15T04:59:50;3.57;;;2.23;;
7426;SDS011;3755;59.316;18.092;2022-12-15T05:02:39;3.90;;;2.60;;
7426;SDS011;3755;59.316;18.092;2022-12-15T05:05:27;3.00;;;2.30;;
7426;SDS011;3755;59.316;18.092;2022-12-15T05:08:15;3.77;;;1.97;;
7426;SDS011;3755;59.316;18.092;2022-12-15T05:11:20;4.20;;;2.10;;
7426;SDS011;3755;59.316;18.092;2022-12-15T05:14:05;3.33;;;2.13;;
7426;SDS011;3755;59.316;18.092;2022-12-15T05:16:50;4.60;;;2.10;;
7426;SDS011;3755;59.316;18.092;2022-12-15T05:19:36;4.87;;;2.87;;
7426;SDS011;3755;59.316;18.092;2022-12-15T05:22:22;3.23;;;2.30;;
7426;SDS011;3755;59.316;18.092;2022-12-15T05:25:07;4.77;;;2.47;;
7426;SDS011;3755;59.316;18.092;2022-12-15T05:27:52;3.37;;;2.40;;
7426;SDS011;3755;59.316;18.092;2022-12-15T05:30:38;7.47;;;2.33;;
7426;SDS011;3755;59.316;18.092;2022-12-15T05:33:23;4.47;;;2.40;;
7426;SDS011;3755;59.316;18.092;2022-12-15T05:36:06;10.20;;;2.80;;
7426;SDS011;3755;59.316;18.092;2022-12-15T05:41:53;6.70;;;2.80;;
7426;SDS011;3755;59.316;18.092;2022-12-15T05:44:40;5.17;;;3.10;;
7426;SDS011;3755;59.316;18.092;2022-12-15T05:47:21;5.67;;;3.17;;
7426;SDS011;3755;59.316;18.092;2022-12-15T05:50:05;9.50;;;3.50;;
7426;SDS011;3755;59.316;18.092;2022-12-15T05:53:00;9.03;;;4.07;;
7426;SDS011;3755;59.316;18.092;2022-12-15T05:56:06;8.23;;;3.37;;
7426;SDS011;3755;59.316;18.092;2022-12-15T06:24:47;5.93;;;2.80;;
7426;SDS011;3755;59.316;18.092;2022-12-15T06:27:31;6.60;;;3.03;;
7426;SDS011;3755;59.316;18.092;2022-12-15T06:30:31;4.83;;;3.10;;
7426;SDS011;3755;59.316;18.092;2022-12-15T06:33:12;11.27;;;3.23;;
7426;SDS011;3755;59.316;18.092;2022-12-15T06:35:55;3.83;;;2.90;;
7426;SDS011;3755;59.316;18.092;2022-12-15T06:38:41;4.07;;;2.80;;
7426;SDS011;3755;59.316;18.092;2022-12-15T06:56:55;6.93;;;3.30;;
7426;SDS011;3755;59.316;18.092;2022-12-15T06:59:44;5.90;;;3.10;;
7426;SDS011;3755;59.316;18.092;2022-12-15T07:02:28;6.93;;;3.90;;
7426;SDS011;3755;59.316;18.092;2022-12-15T07:08:23;5.60;;;2.73;;
7426;SDS011;3755;59.316;18.092;2022-12-15T07:35:53;3.83;;;2.30;;
7426;SDS011;3755;59.316;18.092;2022-12-15T07:38:35;5.67;;;3.00;;
7426;SDS011;3755;59.316;18.092;2022-12-15T07:41:17;4.60;;;2.57;;
7426;SDS011;3755;59.316;18.092;2022-12-15T07:43:59;6.80;;;3.30;;
7426;SDS011;3755;59.316;18.092;2022-12-15T07:46:41;6.50;;;4.00;;
7426;SDS011;3755;59.316;18.092;2022-12-15T07:59:06;3.60;;;2.67;;
7426;SDS011;3755;59.316;18.092;2022-12-15T08:02:08;3.57;;;2.27;;
7426;SDS011;3755;59.316;18.092;2022-12-15T08:04:55;2.70;;;2.43;;
7426;SDS011;3755;59.316;18.092;2022-12-15T08:07:39;4.50;;;3.17;;
7426;SDS011;3755;59.316;18.092;2022-12-15T08:10:24;4.23;;;2.70;;
7426;SDS011;3755;59.316;18.092;2022-12-15T08:13:07;5.27;;;3.67;;
7426;SDS011;3755;59.316;18.092;2022-12-15T08:25:33;3.13;;;2.37;;
7426;SDS011;3755;59.316;18.092;2022-12-15T08:28:49;7.30;;;3.77;;
7426;SDS011;3755;59.316;18.092;2022-12-15T08:31:32;1.30;;;1.20;;
7426;SDS011;3755;59.316;18.092;2022-12-15T08:34:16;6.77;;;3.27;;
7426;SDS011;3755;59.316;18.092;2022-12-15T08:37:18;3.90;;;2.03;;
7426;SDS011;3755;59.316;18.092;2022-12-15T08:39:59;6.17;;;2.63;;
7426;SDS011;3755;59.316;18.092;2022-12-15T08:48:59;9.00;;;3.27;;
7426;SDS011;3755;59.316;18.092;2022-12-15T08:51:43;11.73;;;4.20;;
7426;SDS011;3755;59.316;18.092;2022-12-15T08:57:17;7.03;;;3.60;;
7426;SDS011;3755;59.316;18.092;2022-12-15T08:59:58;5.90;;;3.80;;
7426;SDS011;3755;59.316;18.092;2022-12-15T09:02:53;7.13;;;4.77;;
7426;SDS011;3755;59.316;18.092;2022-12-15T09:18:29;7.10;;;3.60;;
7426;SDS011;3755;59.316;18.092;2022-12-15T09:21:12;8.60;;;3.77;;
7426;SDS011;3755;59.316;18.092;2022-12-15T09:23:58;8.13;;;4.33;;
7426;SDS011;3755;59.316;18.092;2022-12-15T09:26:41;6.63;;;3.50;;
7426;SDS011;3755;59.316;18.092;2022-12-15T09:29:24;8.90;;;5.00;;
7426;SDS011;3755;59.316;18.092;2022-12-15T09:32:12;8.73;;;4.10;;
7426;SDS011;3755;59.316;18.092;2022-12-15T09:44:13;5.37;;;3.57;;
7426;SDS011;3755;59.316;18.092;2022-12-15T09:47:12;6.03;;;3.93;;
7426;SDS011;3755;59.316;18.092;2022-12-15T09:50:09;8.20;;;4.33;;
7426;SDS011;3755;59.316;18.092;2022-12-15T09:52:51;6.20;;;4.13;;
7426;SDS011;3755;59.316;18.092;2022-12-15T09:55:56;7.90;;;4.20;;
7426;SDS011;3755;59.316;18.092;2022-12-15T09:58:55;7.73;;;4.40;;
7426;SDS011;3755;59.316;18.092;2022-12-15T10:05:15;10.70;;;5.20;;
7426;SDS011;3755;59.316;18.092;2022-12-15T10:08:11;8.57;;;4.10;;
7426;SDS011;3755;59.316;18.092;2022-12-15T10:11:14;10.07;;;4.87;;
7426;SDS011;3755;59.316;18.092;2022-12-15T10:14:05;13.67;;;5.43;;
7426;SDS011;3755;59.316;18.092;2022-12-15T10:17:03;7.63;;;4.80;;
7426;SDS011;3755;59.316;18.092;2022-12-15T10:19:58;7.87;;;4.80;;
7426;SDS011;3755;59.316;18.092;2022-12-15T10:43:09;12.77;;;4.83;;
7426;SDS011;3755;59.316;18.092;2022-12-15T10:46:05;8.73;;;4.47;;
7426;SDS011;3755;59.316;18.092;2022-12-15T10:48:55;8.13;;;4.53;;
7426;SDS011;3755;59.316;18.092;2022-12-15T10:54:56;8.43;;;4.93;;
7426;SDS011;3755;59.316;18.092;2022-12-15T10:58:01;10.10;;;5.30;;
7426;SDS011;3755;59.316;18.092;2022-12-15T11:30:40;9.20;;;4.87;;
7426;SDS011;3755;59.316;18.092;2022-12-15T11:36:31;7.13;;;4.33;;
7426;SDS011;3755;59.316;18.092;2022-12-15T11:39:35;8.13;;;4.70;;
7426;SDS011;3755;59.316;18.092;2022-12-15T11:42:29;4.40;;;2.30;;
7426;SDS011;3755;59.316;18.092;2022-12-15T11:45:22;7.33;;;4.53;;
7426;SDS011;3755;59.316;18.092;2022-12-15T11:48:14;8.83;;;4.63;;
7426;SDS011;3755;59.316;18.092;2022-12-15T11:50:58;8.20;;;4.23;;
7426;SDS011;3755;59.316;18.092;2022-12-15T11:53:50;8.83;;;4.50;;
7426;SDS011;3755;59.316;18.092;2022-12-15T11:57:01;8.93;;;3.77;;
7426;SDS011;3755;59.316;18.092;2022-12-15T12:00:03;5.77;;;3.73;;
7426;SDS011;3755;59.316;18.092;2022-12-15T12:02:50;7.07;;;4.43;;
7426;SDS011;3755;59.316;18.092;2022-12-15T12:06:18;9.67;;;3.37;;
7426;SDS011;3755;59.316;18.092;2022-12-15T12:09:29;9.70;;;4.77;;
7426;SDS011;3755;59.316;18.092;2022-12-15T12:12:28;8.10;;;3.67;;
7426;SDS011;3755;59.316;18.092;2022-12-15T12:15:21;8.23;;;4.80;;
7426;SDS011;3755;59.316;18.092;2022-12-15T12:18:10;10.97;;;4.63;;
7426;SDS011;3755;59.316;18.092;2022-12-15T12:20:59;7.60;;;4.37;;
7426;SDS011;3755;59.316;18.092;2022-12-15T12:36:51;8.13;;;4.17;;
7426;SDS011;3755;59.316;18.092;2022-12-15T12:39:55;7.60;;;3.57;;
7426;SDS011;3755;59.316;18.092;2022-12-15T12:43:06;5.13;;;3.33;;
7426;SDS011;3755;59.316;18.092;2022-12-15T12:46:06;7.63;;;4.03;;
7426;SDS011;3755;59.316;18.092;2022-12-15T12:55:35;12.33;;;4.50;;
7426;SDS011;3755;59.316;18.092;2022-12-15T12:58:29;5.03;;;3.07;;
7426;SDS011;3755;59.316;18.092;2022-12-15T13:01:16;9.10;;;4.30;;
7426;SDS011;3755;59.316;18.092;2022-12-15T13:04:10;12.00;;;5.43;;
7426;SDS011;3755;59.316;18.092;2022-12-15T13:10:40;10.13;;;4.33;;
7426;SDS011;3755;59.316;18.092;2022-12-15T13:13:41;8.13;;;3.73;;
7426;SDS011;3755;59.316;18.092;2022-12-15T13:16:26;6.97;;;4.63;;
7426;SDS011;3755;59.316;18.092;2022-12-15T13:19:11;9.60;;;3.93;;
7426;SDS011;3755;59.316;18.092;2022-12-15T13:21:53;5.67;;;3.37;;
7426;SDS011;3755;59.316;18.092;2022-12-15T13:40:49;12.07;;;4.40;;
7426;SDS011;3755;59.316;18.092;2022-12-15T13:43:40;5.93;;;3.67;;
7426;SDS011;3755;59.316;18.092;2022-12-15T13:47:09;9.87;;;4.57;;
7426;SDS011;3755;59.316;18.092;2022-12-15T13:50:09;6.63;;;4.10;;
7426;SDS011;3755;59.316;18.092;2022-12-15T13:53:20;7.40;;;4.40;;
7426;SDS011;3755;59.316;18.092;2022-12-15T13:56:04;6.43;;;3.47;;
7426;SDS011;3755;59.316;18.092;2022-12-15T13:59:18;9.17;;;4.00;;
7426;SDS011;3755;59.316;18.092;2022-12-15T14:02:33;6.90;;;4.20;;
7426;SDS011;3755;59.316;18.092;2022-12-15T14:41:22;8.50;;;4.13;;
7426;SDS011;3755;59.316;18.092;2022-12-15T14:48:19;8.67;;;4.23;;
7426;SDS011;3755;59.316;18.092;2022-12-15T14:51:08;9.67;;;5.03;;
7426;SDS011;3755;59.316;18.092;2022-12-15T14:53:53;8.53;;;4.60;;
7426;SDS011;3755;59.316;18.092;2022-12-15T15:03:25;11.23;;;5.83;;
7426;SDS011;3755;59.316;18.092;2022-12-15T15:06:36;9.30;;;6.33;;
7426;SDS011;3755;59.316;18.092;2022-12-15T15:09:22;14.67;;;6.07;;
7426;SDS011;3755;59.316;18.092;2022-12-15T15:12:06;9.63;;;5.13;;
7426;SDS011;3755;59.316;18.092;2022-12-15T15:18:01;12.00;;;5.50;;
7426;SDS011;3755;59.316;18.092;2022-12-15T15:20:48;12.17;;;5.03;;
7426;SDS011;3755;59.316;18.092;2022-12-15T15:23:41;12.47;;;5.00;;
7426;SDS011;3755;59.316;18.092;2022-12-15T15:26:36;7.67;;;3.50;;
7426;SDS011;3755;59.316;18.092;2022-12-15T15:29:39;10.23;;;5.63;;
7426;SDS011;3755;59.316;18.092;2022-12-15T15:32:21;8.13;;;5.03;;
7426;SDS011;3755;59.316;18.092;2022-12-15T15:35:06;10.10;;;4.80;;
7426;SDS011;3755;59.316;18.092;2022-12-15T15:41:16;12.53;;;5.47;;
7426;SDS011;3755;59.316;18.092;2022-12-15T15:44:18;7.80;;;5.33;;
7426;SDS011;3755;59.316;18.092;2022-12-15T15:47:17;10.30;;;4.80;;
7426;SDS011;3755;59.316;18.092;2022-12-15T15:50:04;9.90;;;4.70;;
7426;SDS011;3755;59.316;18.092;2022-12-15T15:52:55;12.17;;;5.43;;
7426;SDS011;3755;59.316;18.092;2022-12-15T15:55:41;12.27;;;6.03;;
7426;SDS011;3755;59.316;18.092;2022-12-15T15:58:33;11.27;;;5.23;;
7426;SDS011;3755;59.316;18.092;2022-12-15T16:01:43;9.97;;;4.67;;
7426;SDS011;3755;59.316;18.092;2022-12-15T16:04:48;9.67;;;5.37;;
7426;SDS011;3755;59.316;18.092;2022-12-15T16:07:32;12.03;;;4.93;;
7426;SDS011;3755;59.316;18.092;2022-12-15T16:10:34;11.70;;;4.90;;
7426;SDS011;3755;59.316;18.092;2022-12-15T16:13:18;6.57;;;3.70;;
7426;SDS011;3755;59.316;18.092;2022-12-15T16:19:23;4.03;;;2.40;;
7426;SDS011;3755;59.316;18.092;2022-12-15T16:22:07;7.50;;;3.90;;
7426;SDS011;3755;59.316;18.092;2022-12-15T16:24:53;6.93;;;3.90;;
7426;SDS011;3755;59.316;18.092;2022-12-15T16:27:46;3.33;;;2.03;;
7426;SDS011;3755;59.316;18.092;2022-12-15T16:30:27;7.13;;;3.70;;
7426;SDS011;3755;59.316;18.092;2022-12-15T16:39:43;5.20;;;3.20;;
7426;SDS011;3755;59.316;18.092;2022-12-15T16:42:25;5.53;;;4.17;;
7426;SDS011;3755;59.316;18.092;2022-12-15T16:45:13;2.53;;;1.83;;
7426;SDS011;3755;59.316;18.092;2022-12-15T16:48:32;2.87;;;1.60;;
7426;SDS011;3755;59.316;18.092;2022-12-15T16:51:19;3.43;;;2.80;;
7426;SDS011;3755;59.316;18.092;2022-12-15T16:57:13;5.27;;;2.27;;
7426;SDS011;3755;59.316;18.092;2022-12-15T16:59:56;1.43;;;1.30;;
7426;SDS011;3755;59.316;18.092;2022-12-15T17:02:46;3.23;;;1.83;;
7426;SDS011;3755;59.316;18.092;2022-12-15T17:05:33;3.73;;;2.93;;
7426;SDS011;3755;59.316;18.092;2022-12-15T17:08:16;5.43;;;2.20;;
7426;SDS011;3755;59.316;18.092;2022-12-15T17:14:43;6.40;;;3.63;;
7426;SDS011;3755;59.316;18.092;2022-12-15T17:17:30;5.97;;;3.27;;
7426;SDS011;3755;59.316;18.092;2022-12-15T17:20:14;4.70;;;2.17;;
7426;SDS011;3755;59.316;18.092;2022-12-15T17:23:19;5.50;;;3.60;;
7426;SDS011;3755;59.316;18.092;2022-12-15T17:26:03;5.47;;;3.57;;
7426;SDS011;3755;59.316;18.092;2022-12-15T17:35:15;12.33;;;4.93;;
7426;SDS011;3755;59.316;18.092;2022-12-15T17:38:16;7.67;;;3.50;;
7426;SDS011;3755;59.316;18.092;2022-12-15T17:44:39;4.50;;;2.63;;
7426;SDS011;3755;59.316;18.092;2022-12-15T17:47:22;2.63;;;2.10;;
7426;SDS011;3755;59.316;18.092;2022-12-15T17:50:09;4.13;;;2.20;;
7426;SDS011;3755;59.316;18.092;2022-12-15T17:58:19;3.60;;;2.10;;
7426;SDS011;3755;59.316;18.092;2022-12-15T18:01:02;4.07;;;1.90;;
7426;SDS011;3755;59.316;18.092;2022-12-15T18:03:44;4.27;;;3.03;;
7426;SDS011;3755;59.316;18.092;2022-12-15T18:06:19;9.33;;;3.73;;
7426;SDS011;3755;59.316;18.092;2022-12-15T18:09:01;6.97;;;2.60;;
7426;SDS011;3755;59.316;18.092;2022-12-15T18:11:44;8.63;;;3.27;;
7426;SDS011;3755;59.316;18.092;2022-12-15T18:21:21;7.97;;;3.13;;
7426;SDS011;3755;59.316;18.092;2022-12-15T18:24:08;2.47;;;2.10;;
7426;SDS011;3755;59.316;18.092;2022-12-15T18:30:24;5.53;;;3.03;;
7426;SDS011;3755;59.316;18.092;2022-12-15T18:32:53;6.37;;;2.97;;
7426;SDS011;3755;59.316;18.092;2022-12-15T18:35:25;7.37;;;3.47;;
7426;SDS011;3755;59.316;18.092;2022-12-15T18:38:00;5.40;;;3.60;;
7426;SDS011;3755;59.316;18.092;2022-12-15T18:40:42;6.67;;;3.80;;
7426;SDS011;3755;59.316;18.092;2022-12-15T18:43:12;5.30;;;3.40;;
7426;SDS011;3755;59.316;18.092;2022-12-15T18:45:43;8.47;;;4.13;;
7426;SDS011;3755;59.316;18.092;2022-12-15T18:48:17;4.90;;;3.27;;
7426;SDS011;3755;59.316;18.092;2022-12-15T18:50:47;8.33;;;3.47;;
7426;SDS011;3755;59.316;18.092;2022-12-15T18:53:39;5.63;;;3.13;;
7426;SDS011;3755;59.316;18.092;2022-12-15T18:56:29;7.20;;;4.00;;
7426;SDS011;3755;59.316;18.092;2022-12-15T18:58:57;7.03;;;4.50;;
7426;SDS011;3755;59.316;18.092;2022-12-15T19:01:25;7.77;;;4.10;;
7426;SDS011;3755;59.316;18.092;2022-12-15T19:04:18;7.30;;;4.43;;
7426;SDS011;3755;59.316;18.092;2022-12-15T19:06:59;7.23;;;4.57;;
7426;SDS011;3755;59.316;18.092;2022-12-15T19:51:21;6.60;;;3.80;;
7426;SDS011;3755;59.316;18.092;2022-12-15T19:54:31;4.20;;;2.60;;
7426;SDS011;3755;59.316;18.092;2022-12-15T19:57:20;7.67;;;4.10;;
7426;SDS011;3755;59.316;18.092;2022-12-15T20:00:08;7.30;;;4.20;;
7426;SDS011;3755;59.316;18.092;2022-12-15T20:03:13;9.23;;;4.00;;
7426;SDS011;3755;59.316;18.092;2022-12-15T20:42:08;13.43;;;6.47;;
7426;SDS011;3755;59.316;18.092;2022-12-15T20:44:41;15.10;;;7.43;;
7426;SDS011;3755;59.316;18.092;2022-12-15T20:47:26;15.50;;;7.47;;
7426;SDS011;3755;59.316;18.092;2022-12-15T20:50:09;11.30;;;6.47;;
7426;SDS011;3755;59.316;18.092;2022-12-15T20:52:52;14.23;;;7.07;;
7426;SDS011;3755;59.316;18.092;2022-12-15T20:55:22;10.53;;;5.67;;
7426;SDS011;3755;59.316;18.092;2022-12-15T20:57:50;13.13;;;6.63;;
7426;SDS011;3755;59.316;18.092;2022-12-15T21:00:19;11.47;;;6.27;;
7426;SDS011;3755;59.316;18.092;2022-12-15T21:02:51;12.50;;;6.13;;
7426;SDS011;3755;59.316;18.092;2022-12-15T21:05:33;11.93;;;6.40;;
7426;SDS011;3755;59.316;18.092;2022-12-15T21:08:18;15.97;;;7.23;;
7426;SDS011;3755;59.316;18.092;2022-12-15T21:11:15;13.97;;;6.53;;
7426;SDS011;3755;59.316;18.092;2022-12-15T21:14:10;12.33;;;6.83;;
7426;SDS011;3755;59.316;18.092;2022-12-15T21:16:46;10.80;;;5.67;;
7426;SDS011;3755;59.316;18.092;2022-12-15T21:19:38;10.53;;;5.57;;
7426;SDS011;3755;59.316;18.092;2022-12-15T21:22:07;10.30;;;4.77;;
7426;SDS011;3755;59.316;18.092;2022-12-15T21:24:44;8.40;;;5.00;;
7426;SDS011;3755;59.316;18.092;2022-12-15T21:27:14;8.67;;;4.17;;
7426;SDS011;3755;59.316;18.092;2022-12-15T21:29:42;9.00;;;5.00;;
7426;SDS011;3755;59.316;18.092;2022-12-15T21:32:26;9.40;;;5.17;;
7426;SDS011;3755;59.316;18.092;2022-12-15T21:34:56;6.03;;;3.90;;
7426;SDS011;3755;59.316;18.092;2022-12-15T21:40:32;8.67;;;4.50;;
7426;SDS011;3755;59.316;18.092;2022-12-15T21:43:03;8.93;;;4.83;;
7426;SDS011;3755;59.316;18.092;2022-12-15T21:58:36;7.00;;;4.00;;
7426;SDS011;3755;59.316;18.092;2022-12-15T22:01:19;5.07;;;2.57;;
7426;SDS011;3755;59.316;18.092;2022-12-15T22:03:49;10.30;;;4.33;;
7426;SDS011;3755;59.316;18.092;2022-12-15T22:06:19;8.87;;;4.60;;
7426;SDS011;3755;59.316;18.092;2022-12-15T22:09:16;5.63;;;3.20;;
7426;SDS011;3755;59.316;18.092;2022-12-15T22:11:57;7.50;;;4.27;;
7426;SDS011;3755;59.316;18.092;2022-12-15T22:14:29;7.73;;;4.67;;
7426;SDS011;3755;59.316;18.092;2022-12-15T22:17:15;9.23;;;4.60;;
7426;SDS011;3755;59.316;18.092;2022-12-15T22:19:57;13.53;;;6.07;;
7426;SDS011;3755;59.316;18.092;2022-12-15T22:22:45;9.30;;;4.87;;
7426;SDS011;3755;59.316;18.092;2022-12-15T22:25:15;9.30;;;4.70;;
7426;SDS011;3755;59.316;18.092;2022-12-15T22:27:57;15.43;;;5.00;;
7426;SDS011;3755;59.316;18.092;2022-12-15T22:30:29;8.60;;;4.53;;
7426;SDS011;3755;59.316;18.092;2022-12-15T22:33:00;8.43;;;4.70;;
7426;SDS011;3755;59.316;18.092;2022-12-15T22:35:32;7.33;;;3.80;;
7426;SDS011;3755;59.316;18.092;2022-12-15T22:38:13;10.90;;;4.90;;
7426;SDS011;3755;59.316;18.092;2022-12-15T22:40:41;7.23;;;4.03;;
7426;SDS011;3755;59.316;18.092;2022-12-15T22:43:15;9.67;;;4.47;;
7426;SDS011;3755;59.316;18.092;2022-12-15T22:45:49;6.90;;;4.03;;
7426;SDS011;3755;59.316;18.092;2022-12-15T22:48:18;7.73;;;4.30;;
7426;SDS011;3755;59.316;18.092;2022-12-15T22:50:50;10.37;;;4.37;;
7426;SDS011;3755;59.316;18.092;2022-12-15T22:53:32;8.63;;;4.40;;
7426;SDS011;3755;59.316;18.092;2022-12-15T22:56:03;6.53;;;4.10;;
7426;SDS011;3755;59.316;18.092;2022-12-15T22:58:40;9.67;;;4.43;;
7426;SDS011;3755;59.316;18.092;2022-12-15T23:01:25;9.27;;;4.13;;
7426;SDS011;3755;59.316;18.092;2022-12-15T23:04:00;11.33;;;5.07;;
7426;SDS011;3755;59.316;18.092;2022-12-15T23:06:28;8.17;;;4.57;;
7426;SDS011;3755;59.316;18.092;2022-12-15T23:08:55;10.43;;;5.20;;
7426;SDS011;3755;59.316;18.092;2022-12-15T23:11:23;8.83;;;4.57;;
7426;SDS011;3755;59.316;18.092;2022-12-15T23:14:13;6.90;;;3.10;;
7426;SDS011;3755;59.316;18.092;2022-12-15T23:16:45;6.47;;;4.40;;
7426;SDS011;3755;59.316;18.092;2022-12-15T23:19:14;9.63;;;4.27;;
7426;SDS011;3755;59.316;18.092;2022-12-15T23:21:51;6.50;;;3.13;;
7426;SDS011;3755;59.316;18.092;2022-12-15T23:24:18;4.67;;;2.70;;
7426;SDS011;3755;59.316;18.092;2022-12-15T23:26:48;6.17;;;3.30;;
7426;SDS011;3755;59.316;18.092;2022-12-15T23:29:15;8.93;;;3.47;;
7426;SDS011;3755;59.316;18.092;2022-12-15T23:31:44;7.50;;;3.37;;
7426;SDS011;3755;59.316;18.092;2022-12-15T23:34:11;7.10;;;3.63;;
7426;SDS011;3755;59.316;18.092;2022-12-15T23:37:17;6.53;;;3.40;;
7426;SDS011;3755;59.316;18.092;2022-12-15T23:39:46;5.97;;;3.00;;
7426;SDS011;3755;59.316;18.092;2022-12-15T23:42:17;6.57;;;3.40;;
7426;SDS011;3755;59.316;18.092;2022-12-15T23:44:47;7.83;;;4.27;;
7426;SDS011;3755;59.316;18.092;2022-12-15T23:47:16;5.90;;;3.40;;
7426;SDS011;3755;59.316;18.092;2022-12-15T23:49:59;7.33;;;3.90;;
7426;SDS011;3755;59.316;18.092;2022-12-15T23:52:28;8.40;;;4.33;;
7426;SDS011;3755;59.316;18.092;2022-12-15T23:54:56;9.20;;;3.73;;
7426;SDS011;3755;59.316;18.092;2022-12-15T23:57:26;6.57;;;3.73;;
7426;SDS011;3755;59.316;18.092;2022-12-15T23:59:56;7.13;;;4.13;;
